Time,TemperatureF,DewpointF,PressureIn,WindDirection,WindDirectionDegrees,WindSpeedMPH,WindSpeedGustMPH,Humidity,HourlyPrecipIn,Conditions,Clouds,dailyrainin,SoftwareType,DateUTC
2013-09-13 00:15:00,63.0,61.0,29.88,West,266,0.0,0.0,94,0.00,,,0.24,,2013-09-13 04:15:00,
2013-09-13 00:25:00,63.0,61.0,29.88,West,266,0.0,0.0,94,0.00,,,0.24,,2013-09-13 04:25:00,
2013-09-13 00:44:00,63.0,61.0,29.87,West,266,0.0,0.0,94,0.00,,,0.24,,2013-09-13 04:44:00,
2013-09-13 00:54:00,63.0,61.0,29.87,West,266,0.0,0.0,94,0.00,,,0.24,,2013-09-13 04:54:00,
2013-09-13 01:13:00,63.0,61.0,29.88,West,266,0.0,0.0,94,0.00,,,0.24,,2013-09-13 05:13:00,
2013-09-13 01:22:00,63.0,61.0,29.88,West,266,0.0,0.0,94,0.00,,,0.24,,2013-09-13 05:22:00,
2013-09-13 01:33:00,63.0,61.0,29.88,West,266,0.0,0.0,94,0.00,,,0.24,,2013-09-13 05:33:00,
2013-09-13 01:54:00,64.0,62.0,29.88,West,266,0.0,0.0,94,0.02,,,0.26,,2013-09-13 05:54:00,
2013-09-13 02:12:00,64.0,62.0,29.86,West,266,0.0,0.0,94,0.02,,,0.26,,2013-09-13 06:12:00,
2013-09-13 02:22:00,64.0,62.0,29.86,West,266,0.0,0.0,94,0.02,,,0.26,,2013-09-13 06:22:00,
2013-09-13 02:52:00,64.0,63.0,29.85,West,266,0.0,0.0,95,0.00,,,0.26,,2013-09-13 06:52:00,
2013-09-13 03:11:00,64.0,63.0,29.85,West,266,0.0,0.0,95,0.00,,,0.26,,2013-09-13 07:11:00,
2013-09-13 03:22:00,64.0,63.0,29.84,West,266,0.0,0.0,95,0.00,,,0.26,,2013-09-13 07:22:00,
2013-09-13 03:43:00,63.0,61.0,29.84,West,266,0.0,0.0,94,0.00,,,0.26,,2013-09-13 07:43:00,
2013-09-13 03:52:00,63.0,61.0,29.84,West,266,0.0,0.0,94,0.00,,,0.26,,2013-09-13 07:52:00,
2013-09-13 04:11:00,63.0,61.0,29.83,West,268,0.0,0.0,94,0.00,,,0.26,,2013-09-13 08:11:00,
2013-09-13 04:22:00,62.0,60.0,29.82,West,268,0.0,0.0,94,0.00,,,0.26,,2013-09-13 08:22:00,
2013-09-13 04:52:00,63.0,62.0,29.82,West,268,0.0,0.0,95,0.00,,,0.26,,2013-09-13 08:52:00,
2013-09-13 05:12:00,64.0,63.0,29.82,NNW,342,0.0,0.0,95,0.00,,,0.26,,2013-09-13 09:12:00,
2013-09-13 05:21:00,64.0,63.0,29.83,ENE,76,0.0,0.0,95,0.00,,,0.26,,2013-09-13 09:21:00,
2013-09-13 05:43:00,64.0,63.0,29.83,ENE,78,0.0,0.0,95,0.01,,,0.27,,2013-09-13 09:43:00,
2013-09-13 05:53:00,64.0,63.0,29.83,ENE,78,0.0,0.0,95,0.01,,,0.27,,2013-09-13 09:53:00,
2013-09-13 06:03:00,64.0,63.0,29.83,ENE,78,0.0,0.0,95,0.01,,,0.27,,2013-09-13 10:03:00,
2013-09-13 06:23:00,63.0,62.0,29.83,WSW,246,0.0,0.0,95,0.01,,,0.27,,2013-09-13 10:23:00,
2013-09-13 06:53:00,62.0,60.0,29.84,NNW,331,0.0,0.0,94,0.00,,,0.27,,2013-09-13 10:53:00,
2013-09-13 07:12:00,62.0,61.0,29.84,NNW,331,0.0,0.0,95,0.00,,,0.27,,2013-09-13 11:12:00,
2013-09-13 07:22:00,62.0,61.0,29.85,NNW,331,0.0,0.0,95,0.00,,,0.27,,2013-09-13 11:22:00,
2013-09-13 07:52:00,62.0,61.0,29.85,NNW,331,0.0,0.0,95,0.00,,,0.27,,2013-09-13 11:52:00,
2013-09-13 08:12:00,61.0,60.0,29.85,NNW,331,0.0,0.0,95,0.00,,,0.27,,2013-09-13 12:12:00,
2013-09-13 08:22:00,62.0,61.0,29.85,NNW,331,0.0,0.0,95,0.00,,,0.27,,2013-09-13 12:22:00,
2013-09-13 08:52:00,62.0,61.0,29.85,NNW,331,0.0,0.0,95,0.00,,,0.27,,2013-09-13 12:52:00,
2013-09-13 09:11:00,63.0,61.0,29.85,SSE,153,0.0,0.0,94,0.00,,,0.27,,2013-09-13 13:11:00,
2013-09-13 09:22:00,63.0,61.0,29.85,SSE,153,0.0,0.0,93,0.00,,,0.27,,2013-09-13 13:22:00,
2013-09-13 09:52:00,64.0,62.0,29.85,SSE,166,0.0,0.0,93,0.00,,,0.27,,2013-09-13 13:52:00,
2013-09-13 10:11:00,66.0,63.0,29.85,South,174,0.0,0.0,90,0.00,,,0.27,,2013-09-13 14:11:00,
2013-09-13 10:22:00,66.0,63.0,29.85,South,174,0.0,0.0,90,0.00,,,0.27,,2013-09-13 14:22:00,
2013-09-13 10:52:00,66.0,62.0,29.85,SSE,159,0.0,0.0,87,0.00,,,0.27,,2013-09-13 14:52:00,
2013-09-13 11:02:00,66.0,62.0,29.85,SSE,159,0.0,0.0,87,0.00,,,0.27,,2013-09-13 15:02:00,
2013-09-13 11:11:00,66.0,62.0,29.85,SSE,159,0.0,0.0,87,0.00,,,0.27,,2013-09-13 15:11:00,
2013-09-13 11:54:00,68.0,61.0,29.85,South,180,0.0,0.0,78,0.00,,,0.27,,2013-09-13 15:54:00,
2013-09-13 12:12:00,68.0,62.0,29.85,South,183,0.0,0.0,82,0.00,,,0.27,,2013-09-13 16:12:00,
2013-09-13 12:24:00,69.0,61.0,29.85,South,181,0.0,0.0,77,0.00,,,0.27,,2013-09-13 16:24:00,
2013-09-13 12:54:00,69.0,65.0,29.85,South,174,0.0,0.0,87,0.00,,,0.27,,2013-09-13 16:54:00,
2013-09-13 13:24:00,71.0,60.0,29.84,SSE,153,0.0,0.0,68,0.00,,,0.26,,2013-09-13 17:24:00,
2013-09-13 13:53:00,71.0,62.0,29.84,SE,141,0.0,0.0,72,0.00,,,0.26,,2013-09-13 17:53:00,
2013-09-13 14:02:00,71.0,62.0,29.84,SE,141,0.0,0.0,72,0.00,,,0.26,,2013-09-13 18:02:00,
2013-09-13 14:12:00,71.0,62.0,29.84,SE,141,0.0,0.0,72,0.00,,,0.26,,2013-09-13 18:12:00,
2013-09-13 14:22:00,71.0,61.0,29.84,NNE,19,0.0,0.0,70,0.00,,,0.25,,2013-09-13 18:22:00,
2013-09-13 14:42:00,71.0,60.0,29.83,SSW,205,0.0,0.0,68,0.00,,,0.25,,2013-09-13 18:42:00,
2013-09-13 14:52:00,70.0,57.0,29.83,SSW,195,0.0,0.0,63,0.00,,,0.25,,2013-09-13 18:52:00,
2013-09-13 15:11:00,70.0,57.0,29.82,West,281,0.0,0.0,63,0.00,,,0.25,,2013-09-13 19:11:00,
2013-09-13 15:22:00,70.0,57.0,29.82,West,281,0.0,0.0,63,0.00,,,0.25,,2013-09-13 19:22:00,
2013-09-13 15:43:00,69.0,57.0,29.81,SSW,198,0.0,0.0,66,0.00,,,0.25,,2013-09-13 19:43:00,
2013-09-13 15:52:00,69.0,57.0,29.81,SSW,198,0.0,0.0,66,0.00,,,0.25,,2013-09-13 19:52:00,
2013-09-13 16:11:00,71.0,58.0,29.81,SE,145,0.0,0.0,63,0.00,,,0.25,,2013-09-13 20:11:00,
2013-09-13 16:22:00,70.0,57.0,29.81,WSW,239,0.0,0.0,63,0.00,,,0.25,,2013-09-13 20:22:00,
2013-09-13 16:52:00,70.0,59.0,29.81,WSW,252,0.0,0.0,68,0.00,,,0.25,,2013-09-13 20:52:00,
2013-09-13 17:12:00,69.0,56.0,29.81,WNW,286,0.0,0.0,63,0.00,,,0.22,,2013-09-13 21:12:00,
2013-09-13 17:22:00,69.0,56.0,29.81,WNW,286,0.0,0.0,63,0.00,,,0.22,,2013-09-13 21:22:00,
2013-09-13 17:54:00,67.0,58.0,29.81,SSE,161,0.0,0.0,73,0.00,,,0.22,,2013-09-13 21:54:00,
2013-09-13 18:13:00,67.0,56.0,29.82,NNE,28,0.0,0.0,69,0.00,,,0.22,,2013-09-13 22:13:00,
2013-09-13 18:24:00,67.0,58.0,29.82,SE,124,0.0,0.0,74,0.00,,,0.22,,2013-09-13 22:24:00,
2013-09-13 18:33:00,67.0,58.0,29.82,SE,124,0.0,0.0,74,0.00,,,0.22,,2013-09-13 22:33:00,
2013-09-13 18:53:00,67.0,58.0,29.82,SE,124,0.0,0.0,74,0.00,,,0.22,,2013-09-13 22:53:00,
2013-09-13 19:53:00,63.0,57.0,29.83,North,5,0.0,0.0,80,0.00,,,0.22,,2013-09-13 23:53:00,
2013-09-13 20:12:00,62.0,56.0,29.83,West,272,0.0,0.0,80,0.00,,,0.22,,2013-09-14 00:12:00,
2013-09-13 20:22:00,62.0,56.0,29.83,West,272,0.0,0.0,80,0.00,,,0.22,,2013-09-14 00:22:00,
2013-09-13 20:42:00,61.0,54.0,29.83,West,268,0.0,0.0,78,0.00,,,0.22,,2013-09-14 00:42:00,
2013-09-13 20:53:00,61.0,54.0,29.83,West,268,0.0,0.0,78,0.00,,,0.22,,2013-09-14 00:53:00,
2013-09-13 21:12:00,59.0,52.0,29.85,WSW,254,0.0,0.0,79,0.00,,,0.22,,2013-09-14 01:12:00,
2013-09-13 21:22:00,59.0,53.0,29.86,NW,324,0.0,0.0,80,0.00,,,0.22,,2013-09-14 01:22:00,
2013-09-13 21:42:00,59.0,52.0,29.86,WSW,241,0.0,0.0,79,0.00,,,0.22,,2013-09-14 01:42:00,
2013-09-13 21:52:00,59.0,53.0,29.86,West,281,0.0,0.0,80,0.00,,,0.14,,2013-09-14 01:52:00,
2013-09-13 22:12:00,58.0,52.0,29.87,WNW,303,0.0,0.0,81,0.00,,,0.04,,2013-09-14 02:12:00,
2013-09-13 22:22:00,58.0,52.0,29.87,WNW,303,0.0,0.0,81,0.00,,,0.04,,2013-09-14 02:22:00,
2013-09-13 22:42:00,58.0,52.0,29.88,NNW,338,0.0,0.0,81,0.00,,,0.03,,2013-09-14 02:42:00,
2013-09-13 22:52:00,58.0,52.0,29.88,NNW,338,0.0,0.0,81,0.00,,,0.03,,2013-09-14 02:52:00,
2013-09-13 23:12:00,58.0,52.0,29.88,WNW,303,0.0,0.0,79,0.00,,,0.03,,2013-09-14 03:12:00,
2013-09-13 23:22:00,57.0,50.0,29.88,WNW,303,0.0,0.0,78,0.00,,,0.03,,2013-09-14 03:22:00,
2013-09-13 23:54:00,56.0,50.0,29.88,WNW,303,0.0,0.0,79,0.00,,,0.03,,2013-09-14 03:54:00,